sensor_id;sensor_type;location;lat;lon;timestamp;pressure;altitude;pressure_sealevel;temperature;humidity
27805;BME280;15183;51.350;11.102;2023-03-21T00:00:58;100191.22;;;14.40;51.50
27805;BME280;15183;51.350;11.102;2023-03-21T00:03:25;100201.97;;;14.45;51.07
27805;BME280;15183;51.350;11.102;2023-03-21T00:05:52;100156.63;;;14.11;51.30
27805;BME280;15183;51.350;11.102;2023-03-21T00:08:21;100176.91;;;14.29;51.16
27805;BME280;15183;51.350;11.102;2023-03-21T00:10:59;100198.47;;;14.44;51.18
27805;BME280;15183;51.350;11.102;2023-03-21T00:13:27;100196.63;;;14.45;51.08
27805;BME280;15183;51.350;11.102;2023-03-21T00:16:14;100197.13;;;14.42;51.40
27805;BME280;15183;51.350;11.102;2023-03-21T00:18:48;100202.44;;;14.42;51.80
27805;BME280;15183;51.350;11.102;2023-03-21T00:21:19;100182.88;;;14.36;51.20
27805;BME280;15183;51.350;11.102;2023-03-21T00:23:46;100185.28;;;14.38;51.25
27805;BME280;15183;51.350;11.102;2023-03-21T00:26:14;100198.81;;;14.48;51.69
27805;BME280;15183;51.350;11.102;2023-03-21T00:28:42;100178.34;;;14.37;51.60
27805;BME280;15183;51.350;11.102;2023-03-21T00:31:09;100185.88;;;14.40;51.47
27805;BME280;15183;51.350;11.102;2023-03-21T00:33:35;100195.59;;;14.46;51.61
27805;BME280;15183;51.350;11.102;2023-03-21T00:36:05;100186.53;;;14.47;51.49
27805;BME280;15183;51.350;11.102;2023-03-21T00:38:32;100183.59;;;14.48;51.39
27805;BME280;15183;51.350;11.102;2023-03-21T00:40:59;100179.09;;;14.49;51.43
27805;BME280;15183;51.350;11.102;2023-03-21T00:43:25;100171.81;;;14.44;51.48
27805;BME280;15183;51.350;11.102;2023-03-21T00:45:56;100192.50;;;14.54;51.22
27805;BME280;15183;51.350;11.102;2023-03-21T00:48:26;100126.91;;;14.19;51.29
27805;BME280;15183;51.350;11.102;2023-03-21T00:50:56;100195.97;;;14.55;51.68
27805;BME280;15183;51.350;11.102;2023-03-21T00:53:22;100189.69;;;14.61;51.46
27805;BME280;15183;51.350;11.102;2023-03-21T00:55:49;100181.84;;;14.54;51.19
27805;BME280;15183;51.350;11.102;2023-03-21T00:58:16;100188.94;;;14.66;51.53
27805;BME280;15183;51.350;11.102;2023-03-21T01:00:43;100170.69;;;14.57;51.21
27805;BME280;15183;51.350;11.102;2023-03-21T01:03:14;100181.97;;;14.65;51.12
27805;BME280;15183;51.350;11.102;2023-03-21T01:05:47;100179.56;;;14.63;51.58
27805;BME280;15183;51.350;11.102;2023-03-21T01:08:35;100162.28;;;14.48;51.62
27805;BME280;15183;51.350;11.102;2023-03-21T01:11:10;100160.91;;;14.46;51.54
27805;BME280;15183;51.350;11.102;2023-03-21T01:13:37;100135.63;;;14.31;51.39
27805;BME280;15183;51.350;11.102;2023-03-21T01:16:06;100152.59;;;14.42;51.69
27805;BME280;15183;51.350;11.102;2023-03-21T01:18:37;100171.66;;;14.51;51.37
27805;BME280;15183;51.350;11.102;2023-03-21T01:21:09;100157.13;;;14.42;51.78
27805;BME280;15183;51.350;11.102;2023-03-21T01:23:38;100160.38;;;14.44;51.85
27805;BME280;15183;51.350;11.102;2023-03-21T01:26:05;100157.13;;;14.42;51.72
27805;BME280;15183;51.350;11.102;2023-03-21T01:28:32;100168.44;;;14.49;51.90
27805;BME280;15183;51.350;11.102;2023-03-21T01:31:01;100169.22;;;14.50;51.53
27805;BME280;15183;51.350;11.102;2023-03-21T01:33:29;100169.47;;;14.48;52.23
27805;BME280;15183;51.350;11.102;2023-03-21T01:35:56;100159.03;;;14.46;51.80
27805;BME280;15183;51.350;11.102;2023-03-21T01:38:24;100155.03;;;14.44;51.77
27805;BME280;15183;51.350;11.102;2023-03-21T01:40:51;100131.28;;;14.25;51.67
27805;BME280;15183;51.350;11.102;2023-03-21T01:43:31;100161.50;;;14.48;52.07
27805;BME280;15183;51.350;11.102;2023-03-21T01:49:14;100158.00;;;14.47;51.79
27805;BME280;15183;51.350;11.102;2023-03-21T01:51:55;100148.66;;;14.45;51.98
27805;BME280;15183;51.350;11.102;2023-03-21T01:54:27;100137.91;;;14.40;52.16
27805;BME280;15183;51.350;11.102;2023-03-21T01:57:00;100141.94;;;14.42;51.78
27805;BME280;15183;51.350;11.102;2023-03-21T01:59:46;100146.53;;;14.47;51.88
27805;BME280;15183;51.350;11.102;2023-03-21T02:02:26;100150.81;;;14.48;51.94
27805;BME280;15183;51.350;11.102;2023-03-21T02:04:54;100141.22;;;14.47;52.12
27805;BME280;15183;51.350;11.102;2023-03-21T02:07:34;100144.38;;;14.44;52.17
27805;BME280;15183;51.350;11.102;2023-03-21T02:10:05;100134.19;;;14.41;51.98
27805;BME280;15183;51.350;11.102;2023-03-21T02:12:33;100124.81;;;14.38;52.46
27805;BME280;15183;51.350;11.102;2023-03-21T02:15:00;100077.81;;;14.15;52.33
27805;BME280;15183;51.350;11.102;2023-03-21T02:23:09;100125.34;;;14.57;51.92
27805;BME280;15183;51.350;11.102;2023-03-21T02:28:55;100125.22;;;14.47;52.18
27805;BME280;15183;51.350;11.102;2023-03-21T02:32:09;100122.16;;;14.38;52.57
27805;BME280;15183;51.350;11.102;2023-03-21T02:35:20;100127.63;;;14.31;52.07
27805;BME280;15183;51.350;11.102;2023-03-21T02:38:16;100127.00;;;14.24;52.60
27805;BME280;15183;51.350;11.102;2023-03-21T02:40:52;100111.97;;;14.18;52.29
27805;BME280;15183;51.350;11.102;2023-03-21T02:43:49;100123.19;;;14.20;52.73
27805;BME280;15183;51.350;11.102;2023-03-21T02:46:40;100110.28;;;14.12;52.63
27805;BME280;15183;51.350;11.102;2023-03-21T02:49:11;100119.91;;;14.13;52.69
27805;BME280;15183;51.350;11.102;2023-03-21T02:51:40;100100.41;;;13.95;52.29
27805;BME280;15183;51.350;11.102;2023-03-21T02:54:13;100119.63;;;13.97;52.66
27805;BME280;15183;51.350;11.102;2023-03-21T02:56:41;100115.91;;;13.98;53.12
27805;BME280;15183;51.350;11.102;2023-03-21T02:59:09;100113.81;;;14.00;52.84
27805;BME280;15183;51.350;11.102;2023-03-21T03:01:36;100113.81;;;14.00;52.80
27805;BME280;15183;51.350;11.102;2023-03-21T03:04:02;100115.53;;;14.07;52.76
27805;BME280;15183;51.350;11.102;2023-03-21T03:06:42;100064.72;;;13.79;52.52
27805;BME280;15183;51.350;11.102;2023-03-21T03:15:20;100116.09;;;14.09;52.99
27805;BME280;15183;51.350;11.102;2023-03-21T03:18:12;100115.53;;;14.07;52.99
27805;BME280;15183;51.350;11.102;2023-03-21T03:21:14;100127.13;;;14.00;52.80
27805;BME280;15183;51.350;11.102;2023-03-21T03:23:52;100107.84;;;13.93;53.17
27805;BME280;15183;51.350;11.102;2023-03-21T03:26:44;100111.47;;;13.87;52.78
27805;BME280;15183;51.350;11.102;2023-03-21T03:29:16;100114.28;;;13.97;52.99
27805;BME280;15183;51.350;11.102;2023-03-21T03:34:25;100088.63;;;13.91;52.92
27805;BME280;15183;51.350;11.102;2023-03-21T03:36:56;100100.03;;;14.03;52.68
27805;BME280;15183;51.350;11.102;2023-03-21T03:39:33;100100.69;;;14.11;52.73
27805;BME280;15183;51.350;11.102;2023-03-21T03:42:06;100091.56;;;14.07;52.71
27805;BME280;15183;51.350;11.102;2023-03-21T03:44:35;100105.09;;;14.22;52.67
27805;BME280;15183;51.350;11.102;2023-03-21T03:47:20;100104.06;;;14.23;52.90
27805;BME280;15183;51.350;11.102;2023-03-21T03:50:08;100102.03;;;14.30;52.46
27805;BME280;15183;51.350;11.102;2023-03-21T03:52:43;100099.13;;;14.32;52.39
27805;BME280;15183;51.350;11.102;2023-03-21T03:55:15;100092.97;;;14.31;52.50
27805;BME280;15183;51.350;11.102;2023-03-21T03:57:43;100093.06;;;14.37;52.28
27805;BME280;15183;51.350;11.102;2023-03-21T04:00:12;100085.31;;;14.35;52.51
27805;BME280;15183;51.350;11.102;2023-03-21T04:02:40;100091.78;;;14.39;52.34
27805;BME280;15183;51.350;11.102;2023-03-21T04:05:07;100084.59;;;14.40;52.56
27805;BME280;15183;51.350;11.102;2023-03-21T04:07:34;100072.28;;;14.39;52.76
27805;BME280;15183;51.350;11.102;2023-03-21T04:10:00;100090.84;;;14.51;52.46
27805;BME280;15183;51.350;11.102;2023-03-21T04:12:27;100102.41;;;14.56;52.46
27805;BME280;15183;51.350;11.102;2023-03-21T04:14:53;100059.44;;;14.36;52.19
27805;BME280;15183;51.350;11.102;2023-03-21T04:17:19;100089.81;;;14.52;51.94
27805;BME280;15183;51.350;11.102;2023-03-21T04:19:46;100105.63;;;14.58;52.40
27805;BME280;15183;51.350;11.102;2023-03-21T04:22:12;100090.38;;;14.54;52.10
27805;BME280;15183;51.350;11.102;2023-03-21T04:24:39;100090.06;;;14.50;52.26
27805;BME280;15183;51.350;11.102;2023-03-21T04:27:06;100086.00;;;14.47;52.18
27805;BME280;15183;51.350;11.102;2023-03-21T04:29:32;100071.91;;;14.47;52.31
27805;BME280;15183;51.350;11.102;2023-03-21T04:31:59;100097.06;;;14.56;52.29
27805;BME280;15183;51.350;11.102;2023-03-21T04:34:26;100092.06;;;14.60;52.24
27805;BME280;15183;51.350;11.102;2023-03-21T04:36:56;100006.47;;;14.00;52.30
27805;BME280;15183;51.350;11.102;2023-03-21T04:39:22;100059.94;;;14.32;51.89
27805;BME280;15183;51.350;11.102;2023-03-21T04:41:49;100076.16;;;14.48;52.49
27805;BME280;15183;51.350;11.102;2023-03-21T04:44:17;100086.50;;;14.44;52.11
27805;BME280;15183;51.350;11.102;2023-03-21T04:46:43;100073.75;;;14.29;52.49
27805;BME280;15183;51.350;11.102;2023-03-21T04:49:10;100083.13;;;14.32;52.32
27805;BME280;15183;51.350;11.102;2023-03-21T04:51:37;100085.97;;;14.25;52.38
27805;BME280;15183;51.350;11.102;2023-03-21T04:54:04;100094.78;;;14.26;52.57
27805;BME280;15183;51.350;11.102;2023-03-21T04:56:30;100085.81;;;14.15;52.55
27805;BME280;15183;51.350;11.102;2023-03-21T04:58:59;100083.16;;;14.15;52.78
27805;BME280;15183;51.350;11.102;2023-03-21T05:01:26;100100.59;;;14.23;52.71
27805;BME280;15183;51.350;11.102;2023-03-21T05:03:58;100085.47;;;14.11;52.77
27805;BME280;15183;51.350;11.102;2023-03-21T05:06:25;100075.16;;;14.15;52.71
27805;BME280;15183;51.350;11.102;2023-03-21T05:08:57;100079.44;;;14.16;52.52
27805;BME280;15183;51.350;11.102;2023-03-21T05:11:27;100063.94;;;14.13;52.24
27805;BME280;15183;51.350;11.102;2023-03-21T05:13:58;100084.69;;;14.28;52.83
27805;BME280;15183;51.350;11.102;2023-03-21T05:16:25;100074.50;;;14.25;52.68
27805;BME280;15183;51.350;11.102;2023-03-21T05:18:56;100084.50;;;14.35;52.72
27805;BME280;15183;51.350;11.102;2023-03-21T05:21:24;100070.53;;;14.27;52.55
27805;BME280;15183;51.350;11.102;2023-03-21T05:23:55;100089.44;;;14.43;52.32
27805;BME280;15183;51.350;11.102;2023-03-21T05:26:24;100091.59;;;14.46;52.51
27805;BME280;15183;51.350;11.102;2023-03-21T05:28:50;100094.28;;;14.46;52.57
27805;BME280;15183;51.350;11.102;2023-03-21T05:31:17;100082.50;;;14.42;52.68
27805;BME280;15183;51.350;11.102;2023-03-21T05:33:45;100098.56;;;14.47;52.56
27805;BME280;15183;51.350;11.102;2023-03-21T05:36:13;100063.16;;;14.35;52.46
27805;BME280;15183;51.350;11.102;2023-03-21T05:38:42;100092.88;;;14.43;52.43
27805;BME280;15183;51.350;11.102;2023-03-21T05:41:12;100091.59;;;14.46;52.92
27805;BME280;15183;51.350;11.102;2023-03-21T05:43:39;100058.25;;;14.26;52.94
27805;BME280;15183;51.350;11.102;2023-03-21T05:46:06;100080.88;;;14.41;52.90
27805;BME280;15183;51.350;11.102;2023-03-21T05:48:33;100090.00;;;14.45;52.93
27805;BME280;15183;51.350;11.102;2023-03-21T05:51:01;100038.91;;;14.14;52.96
27805;BME280;15183;51.350;11.102;2023-03-21T05:53:28;100041.00;;;14.12;52.83
27805;BME280;15183;51.350;11.102;2023-03-21T05:55:54;100084.09;;;14.43;52.95
27805;BME280;15183;51.350;11.102;2023-03-21T05:58:21;100049.41;;;14.21;53.09
27805;BME280;15183;51.350;11.102;2023-03-21T06:00:47;100059.66;;;14.29;52.82
27805;BME280;15183;51.350;11.102;2023-03-21T06:03:14;100084.78;;;14.55;52.90
27805;BME280;15183;51.350;11.102;2023-03-21T06:05:40;100080.53;;;14.54;52.92
27805;BME280;15183;51.350;11.102;2023-03-21T06:08:06;100076.25;;;14.53;52.99
27805;BME280;15183;51.350;11.102;2023-03-21T06:10:33;100070.97;;;14.58;52.70
27805;BME280;15183;51.350;11.102;2023-03-21T06:12:59;100088.66;;;14.65;52.89
27805;BME280;15183;51.350;11.102;2023-03-21T06:15:26;100089.31;;;14.72;52.68
27805;BME280;15183;51.350;11.102;2023-03-21T06:17:52;100084.53;;;14.74;52.65
27805;BME280;15183;51.350;11.102;2023-03-21T06:20:19;100094.53;;;14.84;52.63
27805;BME280;15183;51.350;11.102;2023-03-21T06:22:45;100069.34;;;14.74;52.72
27805;BME280;15183;51.350;11.102;2023-03-21T06:25:12;100056.97;;;14.68;52.60
27805;BME280;15183;51.350;11.102;2023-03-21T06:27:38;100081.94;;;14.79;52.33
27805;BME280;15183;51.350;11.102;2023-03-21T06:30:05;100090.50;;;14.81;52.45
27805;BME280;15183;51.350;11.102;2023-03-21T06:32:33;100083.56;;;14.63;52.57
27805;BME280;15183;51.350;11.102;2023-03-21T06:34:59;100082.13;;;14.55;53.10
27805;BME280;15183;51.350;11.102;2023-03-21T06:37:26;100079.41;;;14.50;52.60
27805;BME280;15183;51.350;11.102;2023-03-21T06:39:52;100091.25;;;14.59;52.91
27805;BME280;15183;51.350;11.102;2023-03-21T06:42:22;100024.19;;;14.11;52.73
27805;BME280;15183;51.350;11.102;2023-03-21T06:44:48;100091.63;;;14.68;52.95
27805;BME280;15183;51.350;11.102;2023-03-21T06:47:14;100079.53;;;14.60;52.71
27805;BME280;15183;51.350;11.102;2023-03-21T06:49:41;100081.97;;;14.62;53.21
27805;BME280;15183;51.350;11.102;2023-03-21T06:52:09;100085.41;;;14.62;53.40
27805;BME280;15183;51.350;11.102;2023-03-21T06:54:36;100097.16;;;14.61;53.22
27805;BME280;15183;51.350;11.102;2023-03-21T06:57:02;100092.72;;;14.50;53.64
27805;BME280;15183;51.350;11.102;2023-03-21T06:59:29;100074.88;;;14.33;53.79
27805;BME280;15183;51.350;11.102;2023-03-21T07:01:55;100082.09;;;14.33;53.88
27805;BME280;15183;51.350;11.102;2023-03-21T07:04:21;100084.91;;;14.26;54.45
27805;BME280;15183;51.350;11.102;2023-03-21T07:06:48;100072.09;;;14.06;54.70
27805;BME280;15183;51.350;11.102;2023-03-21T07:09:15;100096.16;;;14.11;54.56
27805;BME280;15183;51.350;11.102;2023-03-21T07:11:43;100070.47;;;13.88;54.88
27805;BME280;15183;51.350;11.102;2023-03-21T07:14:09;100065.63;;;13.85;55.03
27805;BME280;15183;51.350;11.102;2023-03-21T07:16:35;100054.34;;;13.78;54.98
27805;BME280;15183;51.350;11.102;2023-03-21T07:19:02;100084.63;;;14.06;55.01
27805;BME280;15183;51.350;11.102;2023-03-21T07:21:29;100083.00;;;14.04;54.90
27805;BME280;15183;51.350;11.102;2023-03-21T07:23:56;99998.97;;;13.63;54.97
27805;BME280;15183;51.350;11.102;2023-03-21T07:26:22;100084.97;;;14.31;54.64
27805;BME280;15183;51.350;11.102;2023-03-21T07:28:49;100105.56;;;14.53;54.50
27805;BME280;15183;51.350;11.102;2023-03-21T07:31:16;100095.69;;;14.71;54.35
27805;BME280;15183;51.350;11.102;2023-03-21T07:33:43;100095.63;;;14.88;54.05
27805;BME280;15183;51.350;11.102;2023-03-21T07:36:13;100074.31;;;14.88;54.00
27805;BME280;15183;51.350;11.102;2023-03-21T07:38:42;100091.69;;;15.13;54.09
27805;BME280;15183;51.350;11.102;2023-03-21T07:41:09;100078.16;;;15.19;53.75
27805;BME280;15183;51.350;11.102;2023-03-21T07:43:35;100077.19;;;15.31;53.71
27805;BME280;15183;51.350;11.102;2023-03-21T07:46:02;100090.25;;;15.55;53.83
27805;BME280;15183;51.350;11.102;2023-03-21T07:48:29;100076.72;;;15.67;53.31
27805;BME280;15183;51.350;11.102;2023-03-21T07:50:55;100031.59;;;15.65;53.53
27805;BME280;15183;51.350;11.102;2023-03-21T07:53:22;100093.47;;;16.17;53.00
27805;BME280;15183;51.350;11.102;2023-03-21T07:55:51;100070.78;;;16.19;53.14
27805;BME280;15183;51.350;11.102;2023-03-21T07:58:18;100088.03;;;16.44;52.48
27805;BME280;15183;51.350;11.102;2023-03-21T08:00:44;100073.03;;;16.43;52.47
27805;BME280;15183;51.350;11.102;2023-03-21T08:03:11;100089.47;;;16.62;51.93
27805;BME280;15183;51.350;11.102;2023-03-21T08:05:38;100084.97;;;16.73;52.09
27805;BME280;15183;51.350;11.102;2023-03-21T08:08:05;100092.81;;;16.90;52.07
27805;BME280;15183;51.350;11.102;2023-03-21T08:10:32;100082.63;;;16.92;51.36
27805;BME280;15183;51.350;11.102;2023-03-21T08:12:58;100062.63;;;17.00;51.38
27805;BME280;15183;51.350;11.102;2023-03-21T08:15:25;100077.16;;;17.25;51.33
27805;BME280;15183;51.350;11.102;2023-03-21T08:17:51;100012.25;;;16.92;50.66
27805;BME280;15183;51.350;11.102;2023-03-21T08:20:20;100078.56;;;17.54;50.59
27805;BME280;15183;51.350;11.102;2023-03-21T08:22:48;100063.03;;;17.56;51.02
27805;BME280;15183;51.350;11.102;2023-03-21T08:25:16;100065.72;;;17.82;50.42
27805;BME280;15183;51.350;11.102;2023-03-21T08:27:44;100057.97;;;18.01;50.25
27805;BME280;15183;51.350;11.102;2023-03-21T08:30:15;100071.84;;;18.29;49.48
27805;BME280;15183;51.350;11.102;2023-03-21T08:32:42;100072.06;;;18.48;49.03
27805;BME280;15183;51.350;11.102;2023-03-21T08:35:12;100075.25;;;18.65;48.45
27805;BME280;15183;51.350;11.102;2023-03-21T08:37:39;100073.31;;;18.82;48.26
27805;BME280;15183;51.350;11.102;2023-03-21T08:40:13;100069.78;;;18.97;47.95
27805;BME280;15183;51.350;11.102;2023-03-21T08:42:41;100060.06;;;19.06;47.85
27805;BME280;15183;51.350;11.102;2023-03-21T08:45:10;100060.75;;;19.27;47.40
27805;BME280;15183;51.350;11.102;2023-03-21T08:47:37;100073.75;;;19.55;47.02
27805;BME280;15183;51.350;11.102;2023-03-21T08:50:06;100064.56;;;19.61;47.16
27805;BME280;15183;51.350;11.102;2023-03-21T08:52:33;100053.28;;;19.59;47.09
27805;BME280;15183;51.350;11.102;2023-03-21T08:55:00;100068.41;;;19.84;46.98
27805;BME280;15183;51.350;11.102;2023-03-21T08:57:28;100067.22;;;20.01;46.64
27805;BME280;15183;51.350;11.102;2023-03-21T08:59:54;100052.91;;;20.05;46.63
27805;BME280;15183;51.350;11.102;2023-03-21T09:02:21;100059.19;;;20.25;46.74
27805;BME280;15183;51.350;11.102;2023-03-21T09:04:48;100059.69;;;20.27;46.21
27805;BME280;15183;51.350;11.102;2023-03-21T09:07:14;100057.41;;;20.39;46.04
27805;BME280;15183;51.350;11.102;2023-03-21T09:09:42;100041.25;;;20.39;45.88
27805;BME280;15183;51.350;11.102;2023-03-21T09:12:08;100030.97;;;20.47;45.57
27805;BME280;15183;51.350;11.102;2023-03-21T09:14:35;100057.56;;;20.73;45.49
27805;BME280;15183;51.350;11.102;2023-03-21T09:17:01;100054.81;;;20.78;45.36
27805;BME280;15183;51.350;11.102;2023-03-21T09:19:28;99992.47;;;20.46;45.20
27805;BME280;15183;51.350;11.102;2023-03-21T09:21:55;99976.97;;;20.38;45.08
27805;BME280;15183;51.350;11.102;2023-03-21T09:24:23;100046.78;;;20.97;45.11
27805;BME280;15183;51.350;11.102;2023-03-21T09:26:49;100050.81;;;21.00;44.42
27805;BME280;15183;51.350;11.102;2023-03-21T09:31:44;100042.22;;;20.73;44.65
27805;BME280;15183;51.350;11.102;2023-03-21T09:34:12;100058.03;;;20.80;44.61
27805;BME280;15183;51.350;11.102;2023-03-21T09:36:40;100050.47;;;20.82;44.22
27805;BME280;15183;51.350;11.102;2023-03-21T09:39:10;99991.13;;;20.49;44.40
27805;BME280;15183;51.350;11.102;2023-03-21T09:47:44;100047.78;;;20.82;44.45
27805;BME280;15183;51.350;11.102;2023-03-21T09:50:23;100020.34;;;20.80;44.18
27805;BME280;15183;51.350;11.102;2023-03-21T09:55:35;100028.22;;;20.95;43.61
27805;BME280;15183;51.350;11.102;2023-03-21T09:58:32;100024.28;;;20.88;44.12
27805;BME280;15183;51.350;11.102;2023-03-21T10:01:08;100028.66;;;20.84;44.05
27805;BME280;15183;51.350;11.102;2023-03-21T10:03:48;100024.75;;;20.71;44.37
27805;BME280;15183;51.350;11.102;2023-03-21T10:06:19;100020.28;;;20.61;43.91
27805;BME280;15183;51.350;11.102;2023-03-21T10:08:47;99998.72;;;20.42;43.97
27805;BME280;15183;51.350;11.102;2023-03-21T10:11:21;99998.84;;;20.31;43.64
27805;BME280;15183;51.350;11.102;2023-03-21T10:14:07;100007.38;;;20.38;43.80
27805;BME280;15183;51.350;11.102;2023-03-21T10:20:10;100007.59;;;20.42;44.26
27805;BME280;15183;51.350;11.102;2023-03-21T10:22:39;99993.94;;;20.58;44.01
27805;BME280;15183;51.350;11.102;2023-03-21T10:25:07;100011.00;;;20.72;43.77
27805;BME280;15183;51.350;11.102;2023-03-21T10:27:36;100008.91;;;20.69;43.65
27805;BME280;15183;51.350;11.102;2023-03-21T10:30:04;99988.16;;;20.70;43.81
27805;BME280;15183;51.350;11.102;2023-03-21T10:32:34;99976.41;;;20.85;43.47
27805;BME280;15183;51.350;11.102;2023-03-21T10:35:01;99992.97;;;21.11;43.60
27805;BME280;15183;51.350;11.102;2023-03-21T10:37:30;99999.75;;;21.28;43.52
27805;BME280;15183;51.350;11.102;2023-03-21T10:39:57;99960.06;;;21.14;42.89
27805;BME280;15183;51.350;11.102;2023-03-21T10:42:29;99934.88;;;21.05;43.12
27805;BME280;15183;51.350;11.102;2023-03-21T10:44:57;99992.84;;;21.54;42.71
27805;BME280;15183;51.350;11.102;2023-03-21T10:47:32;99989.53;;;21.58;42.62
27805;BME280;15183;51.350;11.102;2023-03-21T10:50:07;99972.25;;;21.59;43.04
27805;BME280;15183;51.350;11.102;2023-03-21T10:52:36;99948.59;;;21.42;42.95
27805;BME280;15183;51.350;11.102;2023-03-21T10:55:34;99991.44;;;21.57;42.86
27805;BME280;15183;51.350;11.102;2023-03-21T10:58:32;99970.88;;;21.28;42.52
27805;BME280;15183;51.350;11.102;2023-03-21T11:01:03;99988.16;;;21.27;42.40
27805;BME280;15183;51.350;11.102;2023-03-21T11:03:38;99974.25;;;21.20;42.70
27805;BME280;15183;51.350;11.102;2023-03-21T11:06:38;99969.13;;;21.04;42.98
27805;BME280;15183;51.350;11.102;2023-03-21T11:09:19;99983.94;;;21.21;43.00
27805;BME280;15183;51.350;11.102;2023-03-21T11:12:01;99965.44;;;21.14;42.80
27805;BME280;15183;51.350;11.102;2023-03-21T11:14:37;99958.19;;;21.15;42.94
27805;BME280;15183;51.350;11.102;2023-03-21T11:17:28;99982.50;;;21.29;43.04
27805;BME280;15183;51.350;11.102;2023-03-21T11:20:00;99968.78;;;21.25;42.61
27805;BME280;15183;51.350;11.102;2023-03-21T11:22:40;99970.75;;;21.19;42.22
27805;BME280;15183;51.350;11.102;2023-03-21T11:25:18;99939.75;;;21.03;42.61
27805;BME280;15183;51.350;11.102;2023-03-21T11:27:54;99905.34;;;20.80;42.41
27805;BME280;15183;51.350;11.102;2023-03-21T11:30:24;99959.41;;;21.22;42.54
27805;BME280;15183;51.350;11.102;2023-03-21T11:32:57;99949.41;;;21.23;42.28
27805;BME280;15183;51.350;11.102;2023-03-21T11:35:32;99899.06;;;21.04;42.07
27805;BME280;15183;51.350;11.102;2023-03-21T11:37:59;99942.78;;;21.48;42.38
27805;BME280;15183;51.350;11.102;2023-03-21T11:40:34;99945.31;;;21.59;42.03
27805;BME280;15183;51.350;11.102;2023-03-21T11:45:33;99936.41;;;22.05;42.27
27805;BME280;15183;51.350;11.102;2023-03-21T11:48:11;99935.06;;;22.31;42.07
27805;BME280;15183;51.350;11.102;2023-03-21T11:50:46;99934.75;;;22.60;42.04
27805;BME280;15183;51.350;11.102;2023-03-21T11:53:46;99943.41;;;22.71;41.17
27805;BME280;15183;51.350;11.102;2023-03-21T11:56:35;99937.59;;;22.78;41.47
27805;BME280;15183;51.350;11.102;2023-03-21T12:05:10;99920.53;;;22.91;41.01
27805;BME280;15183;51.350;11.102;2023-03-21T12:08:21;99914.28;;;22.82;40.57
27805;BME280;15183;51.350;11.102;2023-03-21T12:11:18;99916.47;;;22.80;40.78
27805;BME280;15183;51.350;11.102;2023-03-21T12:14:46;99909.84;;;22.86;40.82
27805;BME280;15183;51.350;11.102;2023-03-21T12:17:49;99908.25;;;22.85;40.64
27805;BME280;15183;51.350;11.102;2023-03-21T12:26:21;99903.59;;;22.99;40.48
27805;BME280;15183;51.350;11.102;2023-03-21T12:32:20;99904.88;;;23.02;39.97
27805;BME280;15183;51.350;11.102;2023-03-21T12:35:21;99897.38;;;22.99;40.53
27805;BME280;15183;51.350;11.102;2023-03-21T12:38:04;99873.00;;;22.90;40.22
27805;BME280;15183;51.350;11.102;2023-03-21T12:43:27;99880.09;;;23.09;40.07
27805;BME280;15183;51.350;11.102;2023-03-21T12:46:38;99878.34;;;23.04;40.11
27805;BME280;15183;51.350;11.102;2023-03-21T12:49:28;99878.88;;;23.15;40.10
27805;BME280;15183;51.350;11.102;2023-03-21T12:52:24;99866.59;;;23.09;39.78
27805;BME280;15183;51.350;11.102;2023-03-21T12:55:05;99871.63;;;23.02;39.35
27805;BME280;15183;51.350;11.102;2023-03-21T12:57:45;99878.59;;;22.94;39.64
27805;BME280;15183;51.350;11.102;2023-03-21T13:03:02;99866.72;;;23.04;39.66
27805;BME280;15183;51.350;11.102;2023-03-21T13:05:43;99871.03;;;23.05;39.21
27805;BME280;15183;51.350;11.102;2023-03-21T13:10:57;99871.78;;;22.74;39.73
27805;BME280;15183;51.350;11.102;2023-03-21T13:16:40;99858.38;;;22.46;40.02
27805;BME280;15183;51.350;11.102;2023-03-21T13:19:49;99837.00;;;22.35;40.09
27805;BME280;15183;51.350;11.102;2023-03-21T13:22:27;99849.44;;;22.45;40.16
27805;BME280;15183;51.350;11.102;2023-03-21T13:25:18;99854.78;;;22.36;40.67
27805;BME280;15183;51.350;11.102;2023-03-21T13:27:54;99826.50;;;22.34;40.07
27805;BME280;15183;51.350;11.102;2023-03-21T13:30:28;99850.88;;;22.43;39.95
27805;BME280;15183;51.350;11.102;2023-03-21T13:33:12;99839.56;;;22.40;39.94
27805;BME280;15183;51.350;11.102;2023-03-21T13:35:41;99847.84;;;22.44;40.03
27805;BME280;15183;51.350;11.102;2023-03-21T13:38:23;99817.22;;;22.26;39.97
27805;BME280;15183;51.350;11.102;2023-03-21T13:41:26;99832.66;;;22.34;40.10
27805;BME280;15183;51.350;11.102;2023-03-21T13:44:31;99834.81;;;22.23;40.06
27805;BME280;15183;51.350;11.102;2023-03-21T13:47:04;99821.75;;;22.17;40.20
27805;BME280;15183;51.350;11.102;2023-03-21T13:49:34;99811.66;;;22.08;39.82
27805;BME280;15183;51.350;11.102;2023-03-21T13:52:25;99817.06;;;22.08;40.33
27805;BME280;15183;51.350;11.102;2023-03-21T13:54:55;99801.69;;;21.95;40.72
27805;BME280;15183;51.350;11.102;2023-03-21T13:57:45;99814.59;;;21.98;40.41
27805;BME280;15183;51.350;11.102;2023-03-21T14:00:20;99806.53;;;21.84;40.63
27805;BME280;15183;51.350;11.102;2023-03-21T14:05:29;99794.03;;;21.60;40.61
27805;BME280;15183;51.350;11.102;2023-03-21T14:08:05;99804.53;;;21.62;40.02
27805;BME280;15183;51.350;11.102;2023-03-21T14:10:39;99771.84;;;21.35;40.55
27805;BME280;15183;51.350;11.102;2023-03-21T14:13:08;99807.78;;;21.59;40.47
27805;BME280;15183;51.350;11.102;2023-03-21T14:15:54;99791.72;;;21.53;40.29
27805;BME280;15183;51.350;11.102;2023-03-21T14:18:26;99789.13;;;21.48;40.70